Time;durP1;ratioP1;P1;durP2;ratioP2;P2;SDS_P1;SDS_P2;PMS_P1;PMS_P2;Temp;Humidity;BMP_temperature;BMP_pressure;BME280_temperature;BME280_humidity;BME280_pressure;Samples;Min_cycle;Max_cycle;Signal;HPM_P1;HPM_P2
2023/05/16 00:00:47;;;;;;;23.65;4.60;;;;;;;8.97;100.00;101735.63;5064717;28;20033;-68
2023/05/16 00:03:13;;;;;;;22.73;4.93;;;;;;;8.88;100.00;101737.19;5065531;28;20115;-67
2023/05/16 00:05:39;;;;;;;21.00;4.70;;;;;;;8.84;100.00;101742.31;5063332;28;20472;-68
2023/05/16 00:08:04;;;;;;;21.45;4.90;;;;;;;8.84;100.00;101742.31;5049558;28;20032;-68
2023/05/16 00:10:30;;;;;;;23.52;4.70;;;;;;;8.84;100.00;101739.69;5063175;28;20492;-68
2023/05/16 00:12:56;;;;;;;22.08;4.80;;;;;;;8.81;100.00;101740.53;5066286;28;20029;-68
2023/05/16 00:15:23;;;;;;;23.00;5.05;;;;;;;8.62;100.00;101748.78;5064621;28;20028;-69
2023/05/16 00:17:49;;;;;;;24.67;5.03;;;;;;;8.62;100.00;101754.97;5064551;28;20033;-68
2023/05/16 00:20:16;;;;;;;23.70;4.57;;;;;;;8.49;100.00;101751.09;5065233;28;20029;-68
2023/05/16 00:22:41;;;;;;;22.80;4.65;;;;;;;8.42;100.00;101750.84;5063257;28;20039;-69
2023/05/16 00:25:08;;;;;;;23.10;4.68;;;;;;;8.36;100.00;101749.84;5066184;28;20028;-68
2023/05/16 00:27:34;;;;;;;22.77;4.97;;;;;;;8.30;100.00;101757.56;5058309;28;20063;-68
2023/05/16 00:30:01;;;;;;;23.40;4.72;;;;;;;8.23;100.00;101752.97;5062749;28;20120;-68
2023/05/16 00:32:26;;;;;;;22.45;4.63;;;;;;;8.14;100.00;101748.34;5065090;28;20040;-68
2023/05/16 00:34:52;;;;;;;23.92;4.60;;;;;;;8.09;100.00;101751.69;5063889;28;20028;-68
2023/05/16 00:37:17;;;;;;;22.60;4.95;;;;;;;7.95;100.00;101752.19;5063849;28;20055;-66
2023/05/16 00:39:42;;;;;;;22.38;4.40;;;;;;;7.94;100.00;101749.50;5065084;28;20060;-68
2023/05/16 00:42:08;;;;;;;23.42;4.70;;;;;;;7.77;100.00;101754.25;5062534;28;20468;-68
2023/05/16 00:44:33;;;;;;;23.98;5.07;;;;;;;7.79;100.00;101757.81;5066420;28;20033;-69
2023/05/16 00:47:01;;;;;;;23.83;4.20;;;;;;;7.74;100.00;101748.91;5082695;28;20024;-68
2023/05/16 00:49:27;;;;;;;24.52;5.00;;;;;;;7.60;100.00;101749.38;5084868;28;20036;-68
2023/05/16 00:51:53;;;;;;;22.52;4.70;;;;;;;7.62;100.00;101749.41;5083526;28;20455;-67
2023/05/16 00:54:21;;;;;;;22.92;4.50;;;;;;;7.58;100.00;101752.81;5083529;28;20024;-65
2023/05/16 00:56:47;;;;;;;24.13;5.18;;;;;;;7.45;100.00;101746.25;5084506;28;20025;-65
2023/05/16 00:59:13;;;;;;;22.55;4.30;;;;;;;7.40;100.00;101750.50;5082678;28;20020;-67
2023/05/16 01:01:40;;;;;;;22.83;4.60;;;;;;;7.33;100.00;101763.44;5085251;28;20028;-66
2023/05/16 01:04:06;;;;;;;23.27;4.60;;;;;;;7.31;100.00;101758.94;5082053;28;20521;-65
2023/05/16 01:06:33;;;;;;;22.77;4.43;;;;;;;7.24;100.00;101757.00;5085199;28;20031;-65
2023/05/16 01:08:58;;;;;;;22.45;4.45;;;;;;;7.17;100.00;101755.91;5082375;28;20407;-73
2023/05/16 01:11:33;;;;;;;22.85;4.60;;;;;;;7.09;100.00;101765.25;5084315;28;20024;-69
2023/05/16 01:14:07;;;;;;;22.33;4.55;;;;;;;7.05;100.00;101773.88;5064771;28;20435;-68
2023/05/16 01:16:43;;;;;;;23.80;4.55;;;;;;;6.97;100.00;101764.03;5077801;28;20033;-67
2023/05/16 01:19:27;;;;;;;22.35;4.28;;;;;;;7.04;100.00;101762.47;5078248;28;20482;-74
2023/05/16 01:22:05;;;;;;;22.48;4.30;;;;;;;7.08;100.00;101766.13;5082092;28;20035;-70
2023/05/16 01:24:43;;;;;;;21.88;4.32;;;;;;;6.91;100.00;101763.78;5084630;28;20023;-68
2023/05/16 01:27:10;;;;;;;22.88;4.20;;;;;;;6.87;100.00;101767.16;5078717;28;20028;-68
2023/05/16 01:29:36;;;;;;;23.38;4.38;;;;;;;6.84;100.00;101764.41;5084750;28;20028;-74
2023/05/16 01:32:01;;;;;;;21.65;4.13;;;;;;;6.79;100.00;101773.91;5081657;28;20047;-72
2023/05/16 01:34:26;;;;;;;21.15;3.72;;;;;;;6.71;100.00;101768.34;5084432;28;20118;-65
2023/05/16 01:37:04;;;;;;;22.75;4.28;;;;;;;6.69;100.00;101770.06;5082782;28;20046;-68
2023/05/16 01:39:32;;;;;;;20.15;4.13;;;;;;;6.65;100.00;101776.03;5084269;28;20050;-68
2023/05/16 01:42:03;;;;;;;20.30;4.15;;;;;;;6.67;100.00;101769.13;5082447;28;20030;-68
2023/05/16 01:44:36;;;;;;;22.13;4.07;;;;;;;6.61;100.00;101772.41;5084070;28;20493;-68
2023/05/16 01:47:05;;;;;;;;;;;;;;;6.72;100.00;101766.63;5081796;28;20025;-69
2023/05/16 01:49:43;;;;;;;21.63;3.85;;;;;;;6.56;100.00;101776.59;5084208;28;19912;-68
2023/05/16 01:52:15;;;;;;;22.38;4.10;;;;;;;6.50;100.00;101786.91;5077600;28;20403;-68
2023/05/16 01:54:44;;;;;;;23.17;4.10;;;;;;;6.47;100.00;101778.91;5084364;28;20026;-68
2023/05/16 01:57:11;;;;;;;22.67;4.20;;;;;;;6.43;100.00;101790.13;5081005;28;20025;-68
2023/05/16 01:59:38;;;;;;;21.92;4.10;;;;;;;6.40;100.00;101790.91;5084495;28;20360;-68
2023/05/16 02:02:03;;;;;;;23.60;4.25;;;;;;;6.30;100.00;101788.78;5081150;28;20106;-69
2023/05/16 02:04:29;;;;;;;21.70;4.07;;;;;;;6.32;100.00;101784.50;5083677;28;20032;-68
2023/05/16 02:06:55;;;;;;;20.83;4.20;;;;;;;6.24;100.00;101794.72;5082105;28;20032;-69
2023/05/16 02:09:20;;;;;;;21.75;4.30;;;;;;;6.23;100.00;101792.94;5065212;28;20040;-68
2023/05/16 02:11:46;;;;;;;23.25;4.40;;;;;;;6.18;100.00;101798.84;5084378;28;20024;-68
2023/05/16 02:14:11;;;;;;;23.45;4.22;;;;;;;6.16;100.00;101801.44;5081800;28;20088;-69
2023/05/16 02:16:37;;;;;;;22.33;4.35;;;;;;;6.13;100.00;101789.91;5085006;28;20024;-67
2023/05/16 02:19:03;;;;;;;23.50;4.22;;;;;;;6.17;100.00;101795.31;5080718;28;20028;-68
2023/05/16 02:21:28;;;;;;;25.13;4.38;;;;;;;6.05;100.00;101797.50;5083366;28;20501;-68
2023/05/16 02:23:53;;;;;;;23.27;4.32;;;;;;;6.00;100.00;101799.03;5082205;28;20511;-68
2023/05/16 02:26:19;;;;;;;20.30;4.20;;;;;;;5.98;100.00;101792.84;5082059;28;20420;-68
2023/05/16 02:28:45;;;;;;;21.15;4.32;;;;;;;6.08;100.00;101792.34;5083011;28;20032;-71
2023/05/16 02:31:10;;;;;;;22.90;4.63;;;;;;;5.99;100.00;101797.25;5081098;28;20079;-70
2023/05/16 02:33:35;;;;;;;22.17;4.18;;;;;;;5.99;100.00;101803.41;5088748;28;20078;-66
2023/05/16 02:36:01;;;;;;;20.73;4.45;;;;;;;6.00;100.00;101801.66;5087798;28;20025;-74
2023/05/16 02:38:26;;;;;;;23.13;4.53;;;;;;;5.97;100.00;101802.47;5071807;28;20032;-73
2023/05/16 02:40:52;;;;;;;21.33;4.13;;;;;;;5.93;100.00;101814.50;5088693;28;20048;-73
2023/05/16 02:43:17;;;;;;;24.15;4.47;;;;;;;5.89;100.00;101809.09;5088540;28;20039;-75
2023/05/16 02:45:43;;;;;;;23.00;4.60;;;;;;;5.90;100.00;101814.41;5090010;28;20047;-68
2023/05/16 02:48:08;;;;;;;23.42;4.38;;;;;;;5.91;100.00;101816.19;5087055;28;20028;-72
2023/05/16 02:50:33;;;;;;;23.35;4.18;;;;;;;5.91;100.00;101813.56;5090802;28;20469;-73
2023/05/16 02:53:01;;;;;;;21.58;4.10;;;;;;;5.87;100.00;101822.16;5087771;28;20356;-72
2023/05/16 02:55:27;;;;;;;21.60;4.53;;;;;;;5.88;100.00;101825.66;5089625;28;20047;-71
2023/05/16 02:57:52;;;;;;;21.38;3.83;;;;;;;5.79;100.00;101826.19;5088854;28;20081;-70
2023/05/16 03:00:18;;;;;;;21.45;4.25;;;;;;;5.84;100.00;101829.91;5088234;28;20111;-70
2023/05/16 03:02:44;;;;;;;20.83;4.00;;;;;;;5.77;100.00;101830.50;5071862;28;20024;-70
2023/05/16 03:05:10;;;;;;;23.35;4.60;;;;;;;5.71;100.00;101833.78;5087266;28;20507;-73
2023/05/16 03:07:36;;;;;;;21.80;4.32;;;;;;;5.72;100.00;101832.03;5090447;28;20378;-72
2023/05/16 03:10:01;;;;;;;21.05;4.43;;;;;;;5.65;100.00;101837.88;5087123;28;20082;-73
2023/05/16 03:12:27;;;;;;;22.58;4.20;;;;;;;5.62;100.00;101838.66;5089379;28;20028;-71
2023/05/16 03:14:52;;;;;;;21.88;4.32;;;;;;;5.58;100.00;101845.50;5088561;28;20024;-73
2023/05/16 03:17:17;;;;;;;21.88;4.30;;;;;;;5.57;100.00;101851.56;5088001;28;20032;-71
2023/05/16 03:19:43;;;;;;;23.98;4.88;;;;;;;5.55;100.00;101847.13;5090216;28;20024;-68
2023/05/16 03:22:08;;;;;;;22.27;4.40;;;;;;;5.52;100.00;101841.72;5086886;28;20035;-67
2023/05/16 03:24:33;;;;;;;22.95;4.50;;;;;;;5.51;100.00;101846.06;5090274;28;20024;-68
2023/05/16 03:26:59;;;;;;;23.77;4.72;;;;;;;5.52;100.00;101842.63;5087650;28;20123;-68
2023/05/16 03:29:25;;;;;;;21.85;4.40;;;;;;;5.51;100.00;101835.59;5088738;28;20021;-68
2023/05/16 03:31:51;;;;;;;23.58;4.57;;;;;;;5.48;100.00;101845.97;5088769;28;20446;-68
2023/05/16 03:34:16;;;;;;;21.88;4.30;;;;;;;5.43;100.00;101842.25;5087731;28;20055;-69
2023/05/16 03:36:42;;;;;;;23.80;4.63;;;;;;;5.45;100.00;101848.47;5089768;28;20071;-68
2023/05/16 03:39:07;;;;;;;22.48;4.68;;;;;;;5.41;100.00;101849.16;5086897;28;20534;-68
2023/05/16 03:41:33;;;;;;;20.58;4.47;;;;;;;5.43;100.00;101852.72;5089866;28;20123;-68
2023/05/16 03:43:59;;;;;;;23.38;4.65;;;;;;;5.37;100.00;101858.63;5085654;28;20031;-68
2023/05/16 03:46:24;;;;;;;21.30;4.60;;;;;;;5.31;100.00;101860.97;5085565;28;20412;-68
2023/05/16 03:48:50;;;;;;;21.55;4.85;;;;;;;5.31;100.00;101863.59;5085668;28;20024;-68
2023/05/16 03:51:15;;;;;;;22.50;4.60;;;;;;;5.27;100.00;101863.41;5084270;28;20028;-68
2023/05/16 03:53:40;;;;;;;23.80;5.03;;;;;;;5.23;100.00;101867.66;5069736;28;20032;-68
2023/05/16 03:56:06;;;;;;;23.65;5.15;;;;;;;5.27;100.00;101869.56;5084733;28;20044;-68
2023/05/16 03:58:32;;;;;;;23.52;5.13;;;;;;;5.19;100.00;101869.22;5089167;28;20028;-68
2023/05/16 04:00:57;;;;;;;22.08;4.63;;;;;;;5.21;100.00;101867.59;5086972;28;20028;-68
2023/05/16 04:03:27;;;;;;;24.45;4.70;;;;;;;5.19;100.00;101876.22;5087740;28;20395;-70
2023/05/16 04:05:56;;;;;;;22.90;4.60;;;;;;;5.17;100.00;101876.16;5088896;28;20038;-70
2023/05/16 04:08:21;;;;;;;21.48;4.90;;;;;;;5.17;100.00;101873.53;5091703;28;20043;-68
2023/05/16 04:10:47;;;;;;;22.67;4.90;;;;;;;5.09;100.00;101874.91;5106780;28;20039;-68
2023/05/16 04:13:13;;;;;;;23.08;4.97;;;;;;;5.10;100.00;101884.56;5103536;28;20048;-70
2023/05/16 04:15:39;;;;;;;23.83;4.88;;;;;;;5.06;100.00;101888.78;5108354;28;20043;-69
2023/05/16 04:18:04;;;;;;;24.33;5.20;;;;;;;5.07;100.00;101881.81;5104015;28;20032;-69
2023/05/16 04:20:29;;;;;;;22.83;5.10;;;;;;;5.08;100.00;101880.97;5107203;28;20028;-73
2023/05/16 04:22:55;;;;;;;22.85;4.80;;;;;;;5.09;100.00;101882.78;5105683;28;20036;-70
2023/05/16 04:25:20;;;;;;;22.08;4.97;;;;;;;5.09;100.00;101892.38;5105253;28;20028;-68
2023/05/16 04:27:45;;;;;;;23.90;5.03;;;;;;;5.06;100.00;101896.63;5098823;28;20040;-67
2023/05/16 04:30:11;;;;;;;23.88;5.10;;;;;;;5.15;100.00;101890.88;5082932;28;20601;-68
2023/05/16 04:32:37;;;;;;;20.02;4.78;;;;;;;5.19;100.00;101892.81;5068251;28;20395;-67
2023/05/16 04:35:02;;;;;;;23.45;5.30;;;;;;;5.17;100.00;101890.97;5083419;28;20025;-68
2023/05/16 04:37:28;;;;;;;23.23;4.90;;;;;;;5.18;100.00;101903.25;5085079;28;20024;-68
2023/05/16 04:39:53;;;;;;;23.45;5.20;;;;;;;5.16;100.00;101903.19;5084204;28;20024;-69
2023/05/16 04:42:19;;;;;;;23.88;5.32;;;;;;;5.22;100.00;101906.06;5083869;28;20036;-68
2023/05/16 04:44:46;;;;;;;22.10;5.30;;;;;;;5.31;100.00;101907.28;5084991;28;20063;-68
2023/05/16 04:47:12;;;;;;;26.10;5.60;;;;;;;5.31;100.00;101908.19;5082990;28;20025;-68
2023/05/16 04:49:37;;;;;;;22.85;5.15;;;;;;;5.35;100.00;101909.22;5086117;28;20036;-68
2023/05/16 04:52:03;;;;;;;23.48;5.20;;;;;;;5.41;100.00;101915.59;5082666;28;20032;-67
2023/05/16 04:54:28;;;;;;;22.45;5.20;;;;;;;5.48;100.00;101919.41;5084730;28;20025;-67
2023/05/16 04:56:54;;;;;;;21.70;4.93;;;;;;;5.57;100.00;101924.13;5083723;28;20387;-68
2023/05/16 04:59:20;;;;;;;22.60;4.88;;;;;;;5.65;100.00;101932.31;5083199;28;20044;-68
2023/05/16 05:01:46;;;;;;;21.67;4.90;;;;;;;5.66;100.00;101924.50;5084827;28;20024;-68
2023/05/16 05:04:11;;;;;;;22.42;4.88;;;;;;;5.69;100.00;101929.00;5082248;28;20024;-67
2023/05/16 05:06:37;;;;;;;21.75;4.85;;;;;;;5.77;100.00;101932.84;5085482;28;20035;-67
2023/05/16 05:09:04;;;;;;;20.27;4.72;;;;;;;5.83;100.00;101932.19;5082444;28;20029;-67
2023/05/16 05:11:30;;;;;;;22.45;5.00;;;;;;;5.87;100.00;101929.75;5084638;28;20063;-68
2023/05/16 05:13:55;;;;;;;22.90;5.40;;;;;;;5.95;100.00;101924.81;5083276;28;20060;-70
2023/05/16 05:16:21;;;;;;;23.58;5.00;;;;;;;5.98;100.00;101919.72;5065283;28;20033;-72
2023/05/16 05:18:46;;;;;;;21.80;4.90;;;;;;;6.07;100.00;101927.06;5084496;28;20395;-71
2023/05/16 05:21:12;;;;;;;23.35;5.40;;;;;;;6.10;100.00;101925.47;5081856;28;20119;-69
2023/05/16 05:23:37;;;;;;;21.52;4.80;;;;;;;6.15;100.00;101930.91;5085292;28;20048;-71
2023/05/16 05:26:03;;;;;;;21.63;5.05;;;;;;;6.22;100.00;101932.06;5081973;28;20032;-70
2023/05/16 05:28:28;;;;;;;21.48;4.70;;;;;;;6.27;100.00;101934.00;5078919;28;20043;-71
2023/05/16 05:30:53;;;;;;;22.20;4.32;;;;;;;6.33;100.00;101942.97;5078295;28;20027;-71
2023/05/16 05:33:24;;;;;;;22.83;4.50;;;;;;;6.37;100.00;101943.16;5080143;28;20029;-71
2023/05/16 05:35:52;;;;;;;23.27;4.55;;;;;;;6.46;100.00;101937.34;5078359;28;20033;-72
2023/05/16 05:38:18;;;;;;;20.50;4.50;;;;;;;6.60;100.00;101945.78;5074716;28;20111;-71
2023/05/16 05:40:43;;;;;;;21.35;4.35;;;;;;;6.61;100.00;101947.53;5077629;28;20115;-73
2023/05/16 05:43:08;;;;;;;20.20;4.25;;;;;;;6.71;100.00;101951.44;5074367;28;20044;-73
2023/05/16 05:45:34;;;;;;;21.40;4.28;;;;;;;6.75;100.00;101951.59;5078606;28;20044;-74
2023/05/16 05:48:00;;;;;;;19.75;4.28;;;;;;;6.84;100.00;101951.03;5077974;28;20042;-70
2023/05/16 05:50:25;;;;;;;19.80;4.13;;;;;;;6.91;100.00;101958.31;5077586;28;20035;-72
2023/05/16 05:52:50;;;;;;;19.90;4.13;;;;;;;6.98;100.00;101955.09;5076802;28;20533;-70
2023/05/16 05:55:16;;;;;;;19.10;4.05;;;;;;;7.06;100.00;101957.09;5077600;28;20063;-71
2023/05/16 05:57:41;;;;;;;20.38;3.85;;;;;;;7.16;100.00;101959.22;5076636;28;20390;-74
2023/05/16 06:00:08;;;;;;;20.58;3.80;;;;;;;7.17;100.00;101963.66;5079897;28;20060;-72
2023/05/16 06:02:34;;;;;;;22.30;3.92;;;;;;;7.23;100.00;101963.84;5076512;28;20493;-71
2023/05/16 06:05:00;;;;;;;20.95;4.40;;;;;;;7.31;100.00;101965.03;5075771;28;20048;-71
2023/05/16 06:07:25;;;;;;;20.45;3.90;;;;;;;7.37;100.00;101964.38;5075633;28;20025;-72
2023/05/16 06:09:51;;;;;;;20.17;4.13;;;;;;;7.41;100.00;101962.72;5076891;28;20035;-72
2023/05/16 06:12:16;;;;;;;21.60;4.20;;;;;;;7.48;100.00;101967.38;5078640;28;20357;-73
2023/05/16 06:14:42;;;;;;;20.45;4.15;;;;;;;7.51;100.00;101967.47;5074664;28;20116;-71
2023/05/16 06:17:07;;;;;;;20.73;3.80;;;;;;;7.61;100.00;101976.59;5081529;28;20115;-72
2023/05/16 06:19:32;;;;;;;20.67;3.60;;;;;;;7.63;100.00;101977.50;5061087;28;20059;-71
2023/05/16 06:21:58;;;;;;;21.75;3.72;;;;;;;7.75;100.00;101966.53;5077842;28;20503;-71
2023/05/16 06:24:23;;;;;;;19.55;3.78;;;;;;;7.74;100.00;101985.78;5076967;28;20036;-71
2023/05/16 06:26:49;;;;;;;20.83;3.88;;;;;;;7.78;100.00;101993.84;5077747;28;20027;-71
2023/05/16 06:29:16;;;;;;;22.23;4.15;;;;;;;7.85;100.00;101979.16;5061102;28;20422;-72
2023/05/16 06:31:41;;;;;;;21.17;4.07;;;;;;;7.92;100.00;101983.78;5078726;28;20029;-72
2023/05/16 06:34:06;;;;;;;21.20;4.00;;;;;;;7.98;100.00;101981.34;5078250;28;20047;-71
2023/05/16 06:36:32;;;;;;;20.05;3.60;;;;;;;8.09;100.00;101978.19;5059484;28;20514;-71
2023/05/16 06:38:57;;;;;;;19.55;3.40;;;;;;;8.10;100.00;101987.88;5077093;28;20399;-71
2023/05/16 06:41:23;;;;;;;18.15;3.72;;;;;;;8.15;100.00;101978.38;5075684;28;20040;-71
2023/05/16 06:43:48;;;;;;;17.48;3.33;;;;;;;8.36;100.00;101984.34;5075796;28;20035;-71
2023/05/16 06:46:13;;;;;;;18.15;3.38;;;;;;;8.44;100.00;101992.50;5078589;28;20045;-72
2023/05/16 06:48:39;;;;;;;20.30;3.65;;;;;;;8.42;100.00;101985.34;5071188;28;20035;-72
2023/05/16 06:51:04;;;;;;;20.38;3.50;;;;;;;8.51;100.00;101988.31;5069901;28;20077;-71
2023/05/16 06:53:30;;;;;;;18.23;3.40;;;;;;;8.64;100.00;101986.97;5055070;28;20063;-71
2023/05/16 06:55:55;;;;;;;21.33;3.70;;;;;;;8.77;100.00;101982.97;5074327;28;20060;-71
2023/05/16 06:58:20;;;;;;;18.95;3.22;;;;;;;8.92;100.00;101983.41;5079814;28;20036;-72
2023/05/16 07:00:48;;;;;;;17.45;3.20;;;;;;;9.13;100.00;101984.88;5077466;28;20086;-71
2023/05/16 07:03:13;;;;;;;18.27;3.33;;;;;;;9.37;100.00;101987.31;5069688;28;20028;-72
2023/05/16 07:05:39;;;;;;;19.38;3.10;;;;;;;9.52;100.00;101984.19;5080444;28;20081;-72
2023/05/16 07:08:04;;;;;;;17.63;3.15;;;;;;;9.61;100.00;101987.09;5078684;28;20028;-73
2023/05/16 07:10:30;;;;;;;16.23;2.80;;;;;;;9.56;100.00;101981.66;5076947;28;20551;-71
2023/05/16 07:12:55;;;;;;;16.27;2.92;;;;;;;9.62;100.00;101977.41;5077779;28;20035;-71
2023/05/16 07:15:20;;;;;;;17.17;2.80;;;;;;;9.75;100.00;101990.06;5075893;28;20028;-73
2023/05/16 07:17:46;;;;;;;17.67;2.92;;;;;;;9.90;100.00;101986.91;5074547;28;20032;-72
2023/05/16 07:20:13;;;;;;;15.75;2.92;;;;;;;9.92;100.00;101994.03;5077423;28;20422;-72
2023/05/16 07:22:39;;;;;;;15.85;3.08;;;;;;;9.93;100.00;101993.19;5075578;28;20082;-74
2023/05/16 07:25:05;;;;;;;17.45;2.65;;;;;;;10.03;100.00;101989.03;5079761;28;20484;-70
2023/05/16 07:27:31;;;;;;;13.98;2.67;;;;;;;10.07;100.00;102006.72;5078257;28;20059;-70
2023/05/16 07:29:56;;;;;;;14.55;2.72;;;;;;;10.18;100.00;102004.38;5080147;28;20060;-70
2023/05/16 07:32:22;;;;;;;13.80;2.50;;;;;;;10.21;100.00;102004.44;5079960;28;20032;-69
2023/05/16 07:34:48;;;;;;;15.25;2.80;;;;;;;10.26;100.00;102002.78;5079643;28;20020;-67
2023/05/16 07:37:14;;;;;;;14.82;2.60;;;;;;;10.29;100.00;102004.63;5080959;28;20428;-68
2023/05/16 07:39:40;;;;;;;16.00;2.60;;;;;;;10.41;100.00;102006.69;5077470;28;20503;-69
2023/05/16 07:42:07;;;;;;;13.95;2.50;;;;;;;10.48;100.00;102005.97;5080077;28;20029;-69
2023/05/16 07:44:32;;;;;;;15.43;2.60;;;;;;;10.54;100.00;102003.50;5079580;28;20514;-68
2023/05/16 07:46:57;;;;;;;13.82;2.72;;;;;;;10.65;100.00;102003.72;5079738;28;20037;-68
2023/05/16 07:49:23;;;;;;;13.52;2.55;;;;;;;10.74;100.00;102003.91;5081954;28;20040;-68
2023/05/16 07:51:48;;;;;;;15.13;2.65;;;;;;;10.91;100.00;102006.06;5078065;28;20553;-69
2023/05/16 07:54:13;;;;;;;14.95;2.50;;;;;;;11.08;100.00;102011.69;5062687;28;20115;-69
2023/05/16 07:56:39;;;;;;;13.95;2.50;;;;;;;11.28;100.00;102012.97;5079407;28;20031;-69
2023/05/16 07:59:04;;;;;;;13.43;2.35;;;;;;;11.36;100.00;102018.44;5060733;28;20023;-68
2023/05/16 08:01:30;;;;;;;13.73;2.60;;;;;;;11.28;100.00;102012.09;5079681;28;20035;-69
2023/05/16 08:03:55;;;;;;;15.35;2.83;;;;;;;11.36;100.00;102013.16;5083065;28;20049;-69
2023/05/16 08:06:21;;;;;;;14.90;2.47;;;;;;;11.24;100.00;102015.53;5074631;28;20021;-70
2023/05/16 08:08:46;;;;;;;15.95;2.80;;;;;;;11.16;100.00;102007.47;5073086;28;20097;-69
2023/05/16 08:11:11;;;;;;;15.73;2.80;;;;;;;11.06;100.00;102019.59;5081763;28;20032;-70
2023/05/16 08:13:37;;;;;;;14.38;2.80;;;;;;;10.93;100.00;102021.09;5079011;28;20051;-69
2023/05/16 08:16:02;;;;;;;13.75;2.55;;;;;;;10.85;100.00;102019.13;5081936;28;20028;-70
2023/05/16 08:18:28;;;;;;;13.18;2.50;;;;;;;10.92;100.00;102016.69;5060810;28;20032;-70
2023/05/16 08:20:53;;;;;;;15.82;2.80;;;;;;;11.18;100.00;102023.38;5054798;28;20086;-69
2023/05/16 08:23:18;;;;;;;14.20;2.50;;;;;;;11.44;100.00;102011.53;5080371;28;20020;-71
2023/05/16 08:25:44;;;;;;;14.02;2.78;;;;;;;11.80;100.00;102013.09;5078908;28;20033;-68
2023/05/16 08:28:09;;;;;;;16.48;2.72;;;;;;;11.92;100.00;102016.81;5077839;28;20547;-71
2023/05/16 08:30:35;;;;;;;15.15;2.53;;;;;;;11.92;100.00;102012.41;5075432;28;20087;-69
2023/05/16 08:33:03;;;;;;;14.68;2.55;;;;;;;11.90;100.00;102018.53;5080069;28;20032;-72
2023/05/16 08:35:29;;;;;;;11.85;2.50;;;;;;;12.02;100.00;102016.16;5079815;28;20032;-69
2023/05/16 08:37:55;;;;;;;14.85;2.60;;;;;;;12.29;99.39;102020.09;5079956;28;20040;-72
2023/05/16 08:40:24;;;;;;;12.70;2.50;;;;;;;12.58;93.31;102019.66;5061149;28;20037;-74
2023/05/16 08:42:50;;;;;;;16.42;2.70;;;;;;;12.94;89.25;102010.44;5078120;28;20029;-73
2023/05/16 08:45:16;;;;;;;16.08;2.58;;;;;;;13.39;82.98;102009.25;5077561;28;20419;-73
2023/05/16 08:47:44;;;;;;;11.85;2.60;;;;;;;13.82;77.36;102004.38;5077117;28;20471;-73
2023/05/16 08:50:10;;;;;;;14.73;2.50;;;;;;;13.76;75.70;102005.22;5078635;28;20025;-74
2023/05/16 08:52:37;;;;;;;10.82;2.40;;;;;;;13.52;78.71;101997.88;5077951;28;20578;-74
2023/05/16 08:55:10;;;;;;;12.68;2.40;;;;;;;13.45;83.22;102001.34;5062071;28;20063;-74
2023/05/16 08:57:36;;;;;;;12.23;2.40;;;;;;;13.03;85.00;101995.53;5077682;28;20029;-75
2023/05/16 09:00:06;;;;;;;13.93;2.55;;;;;;;12.86;84.82;102002.41;5079928;28;20033;-74
2023/05/16 09:02:32;;;;;;;11.68;2.63;;;;;;;12.55;85.62;102005.50;5056968;28;20036;-75
2023/05/16 09:04:58;;;;;;;13.82;2.92;;;;;;;12.55;86.58;102005.50;5078501;28;20102;-73
2023/05/16 09:07:23;;;;;;;15.70;2.72;;;;;;;12.65;89.34;102005.63;5078694;28;20037;-75
2023/05/16 09:09:49;;;;;;;14.05;2.78;;;;;;;12.61;88.02;102006.44;5078898;28;20398;-74
2023/05/16 09:12:14;;;;;;;15.40;2.80;;;;;;;12.53;91.31;102003.69;5080569;28;20027;-71
2023/05/16 09:14:41;;;;;;;12.18;2.63;;;;;;;12.52;89.93;102013.41;5085546;28;20470;-71
2023/05/16 09:17:08;;;;;;;14.85;2.90;;;;;;;12.63;88.33;102018.00;5081981;28;20090;-71
2023/05/16 09:19:42;;;;;;;17.27;2.95;;;;;;;12.73;90.24;102011.94;5084432;28;20028;-71
2023/05/16 09:22:12;;;;;;;14.02;2.83;;;;;;;13.23;88.86;102013.47;5081654;28;20024;-70
2023/05/16 09:24:42;;;;;;;11.85;2.92;;;;;;;13.33;85.79;102014.47;5085214;28;20197;-68
2023/05/16 09:27:11;;;;;;;16.15;3.00;;;;;;;13.41;84.55;102011.06;5081734;28;20031;-68
2023/05/16 09:29:40;;;;;;;16.95;2.92;;;;;;;13.51;79.03;102009.38;5084693;28;20032;-68
2023/05/16 09:32:11;;;;;;;15.57;2.90;;;;;;;13.65;78.94;102008.66;5082186;28;20025;-68
2023/05/16 09:34:44;;;;;;;11.70;2.45;;;;;;;13.88;76.37;102009.75;5084787;28;20032;-68
2023/05/16 09:37:11;;;;;;;11.73;2.40;;;;;;;14.23;68.98;102001.19;5077813;28;20426;-67
2023/05/16 09:39:40;;;;;;;13.30;2.55;;;;;;;14.60;66.87;102001.41;5084616;28;20028;-69
2023/05/16 09:42:10;;;;;;;13.43;2.42;;;;;;;15.16;65.75;102007.06;5080938;28;20020;-68
2023/05/16 09:44:36;;;;;;;14.55;2.63;;;;;;;16.50;62.27;102001.00;5084142;28;20031;-68
2023/05/16 09:47:02;;;;;;;14.93;2.40;;;;;;;17.40;57.05;102007.81;5063865;28;20055;-71
2023/05/16 09:49:27;;;;;;;11.63;2.40;;;;;;;16.56;54.22;102015.19;5083273;28;20044;-75
2023/05/16 09:51:52;;;;;;;11.75;2.33;;;;;;;15.74;58.71;102021.41;5083277;28;20047;-79
2023/05/16 09:54:30;;;;;;;14.77;2.78;;;;;;;15.09;62.81;102010.59;5081786;28;20383;-74
2023/05/16 09:56:55;;;;;;;13.90;2.80;;;;;;;14.68;62.21;102009.50;5082806;28;20023;-72
2023/05/16 09:59:21;;;;;;;14.20;2.50;;;;;;;16.54;59.74;102011.66;5082147;28;20029;-73
2023/05/16 10:01:47;;;;;;;12.90;2.40;;;;;;;18.39;52.04;102011.53;5082267;28;20038;-76
2023/05/16 10:04:15;;;;;;;10.93;2.30;;;;;;;19.83;48.39;102010.66;5076615;28;20028;-73
2023/05/16 10:06:43;;;;;;;9.70;2.35;;;;;;;20.70;43.13;102010.06;5087064;28;20039;-67
2023/05/16 10:09:13;;;;;;;9.57;2.17;;;;;;;19.12;45.91;102007.19;5093390;28;20032;-70
2023/05/16 10:11:41;;;;;;;14.52;2.58;;;;;;;17.42;49.65;102014.03;5085985;28;20047;-69
2023/05/16 10:14:09;;;;;;;11.63;2.30;;;;;;;16.69;48.35;102000.06;5082676;28;20497;-68
2023/05/16 10:16:34;;;;;;;11.70;2.25;;;;;;;16.94;47.90;102009.81;5076786;28;20115;-72
2023/05/16 10:19:02;;;;;;;11.40;2.30;;;;;;;19.10;44.20;102000.06;5084039;28;20051;-68
2023/05/16 10:21:29;;;;;;;10.98;2.20;;;;;;;20.86;42.53;101991.81;5081825;28;20056;-73
2023/05/16 10:23:57;;;;;;;12.45;2.30;;;;;;;21.94;38.69;102001.06;5076882;28;20364;-78
2023/05/16 10:26:24;;;;;;;10.35;2.00;;;;;;;22.32;37.51;102003.69;5084038;28;20056;-68
2023/05/16 10:28:51;;;;;;;11.98;2.40;;;;;;;21.06;40.33;102005.72;5081134;28;20386;-68
2023/05/16 10:31:17;;;;;;;11.65;2.25;;;;;;;19.50;43.09;102008.44;5083168;28;20035;-68
2023/05/16 10:33:43;;;;;;;9.45;2.10;;;;;;;19.29;42.22;102011.41;5082056;28;20028;-65
2023/05/16 10:36:09;;;;;;;11.30;2.20;;;;;;;20.64;40.15;102004.78;5082332;28;20476;-68
2023/05/16 10:38:36;;;;;;;12.18;2.40;;;;;;;21.74;38.60;102011.41;5083056;28;20020;-68
2023/05/16 10:41:02;;;;;;;10.15;2.00;;;;;;;22.71;36.06;101995.44;5081152;28;20043;-69
2023/05/16 10:43:29;;;;;;;9.30;2.20;;;;;;;23.99;34.25;102006.88;5077879;28;20041;-69
2023/05/16 10:46:09;;;;;;;10.63;2.15;;;;;;;22.68;35.72;102000.06;5075509;28;20106;-69
2023/05/16 10:48:37;;;;;;;11.10;2.22;;;;;;;20.35;36.24;102003.53;5078145;28;20020;-67
2023/05/16 10:51:24;;;;;;;11.88;2.10;;;;;;;18.76;39.71;101998.63;5082697;28;20024;-69
2023/05/16 10:53:51;;;;;;;12.95;2.30;;;;;;;18.84;40.99;101990.50;5076650;28;20497;-70
2023/05/16 10:56:22;;;;;;;9.45;2.15;;;;;;;21.53;39.26;101999.38;5080296;28;20082;-71
2023/05/16 10:58:47;;;;;;;13.45;2.30;;;;;;;23.77;35.26;102001.28;5079983;28;20032;-72
2023/05/16 11:01:31;;;;;;;9.98;2.13;;;;;;;25.19;33.80;101994.44;5080802;28;20074;-68
2023/05/16 11:03:56;;;;;;;10.27;2.10;;;;;;;24.62;31.61;101996.56;5080536;28;20028;-69
2023/05/16 11:06:22;;;;;;;11.85;2.20;;;;;;;22.42;33.41;101998.97;5081422;28;20033;-71
2023/05/16 11:09:08;;;;;;;11.77;2.50;;;;;;;20.39;38.52;102007.94;5081659;28;20078;-74
2023/05/16 11:11:46;;;;;;;11.63;2.30;;;;;;;21.26;38.96;101999.06;5080369;28;20044;-73
2023/05/16 11:14:33;;;;;;;12.57;2.40;;;;;;;20.68;40.39;102001.16;5077241;28;20032;-74